createdAt,value
2022-12-05T00:01:35.332Z,4.63
2022-12-05T00:04:06.029Z,4.61
2022-12-05T00:06:34.084Z,4.61
2022-12-05T00:09:01.344Z,4.57
2022-12-05T00:11:34.724Z,4.55
2022-12-05T00:14:03.461Z,4.52
2022-12-05T00:16:33.072Z,4.59
2022-12-05T00:19:01.346Z,4.53
2022-12-05T00:21:31.047Z,4.54
2022-12-05T00:24:01.202Z,4.45
2022-12-05T00:26:35.883Z,4.50
2022-12-05T00:29:03.076Z,4.44
2022-12-05T00:31:30.774Z,4.43
2022-12-05T00:34:01.023Z,4.40
2022-12-05T00:36:30.712Z,4.44
2022-12-05T00:39:00.803Z,4.49
2022-12-05T00:41:29.259Z,4.48
2022-12-05T00:43:59.238Z,4.44
2022-12-05T00:46:28.778Z,4.42
2022-12-05T00:48:57.756Z,4.40
2022-12-05T00:51:28.262Z,4.44
2022-12-05T00:53:59.259Z,4.51
2022-12-05T00:56:27.768Z,4.44
2022-12-05T00:58:57.276Z,4.46
2022-12-05T01:01:27.376Z,4.45
2022-12-05T01:03:57.378Z,4.52
2022-12-05T01:06:26.813Z,4.50
2022-12-05T01:08:56.195Z,4.53
2022-12-05T01:11:25.253Z,4.57
2022-12-05T01:13:53.526Z,4.56
2022-12-05T01:16:26.087Z,4.50
2022-12-05T01:18:53.872Z,4.49
2022-12-05T01:21:21.515Z,4.57
2022-12-05T01:23:49.147Z,4.52
2022-12-05T01:26:18.827Z,4.55
2022-12-05T01:28:46.162Z,4.50
2022-12-05T01:31:28.868Z,4.55
2022-12-05T01:33:57.786Z,4.59
2022-12-05T01:36:26.478Z,4.54
2022-12-05T01:38:54.174Z,4.51
2022-12-05T01:41:33.807Z,4.51
2022-12-05T01:44:07.067Z,4.52
2022-12-05T01:46:40.125Z,4.51
2022-12-05T01:49:14.058Z,4.48
2022-12-05T01:51:49.046Z,4.51
2022-12-05T01:54:18.534Z,4.54
2022-12-05T01:56:53.589Z,4.58
2022-12-05T01:59:22.538Z,4.64
2022-12-05T02:01:50.052Z,4.65
2022-12-05T02:04:18.888Z,4.62
2022-12-05T02:06:46.764Z,4.60
2022-12-05T02:09:13.822Z,4.55
2022-12-05T02:11:50.073Z,4.62
2022-12-05T02:14:25.539Z,4.48
2022-12-05T02:16:55.342Z,4.44
2022-12-05T02:19:38.706Z,4.16
2022-12-05T02:22:42.444Z,4.02
2022-12-05T02:25:43.376Z,4.02
2022-12-05T02:28:34.823Z,4.03
2022-12-05T02:31:10.155Z,4.04
2022-12-05T02:33:59.433Z,4.11
2022-12-05T02:36:44.401Z,4.05
2022-12-05T02:39:21.347Z,4.01
2022-12-05T02:42:26.491Z,4.01
2022-12-05T02:45:05.706Z,4.11
2022-12-05T02:47:38.153Z,4.24
2022-12-05T02:50:09.030Z,4.18
2022-12-05T02:52:36.617Z,4.19
2022-12-05T02:55:05.241Z,4.19
2022-12-05T02:57:40.484Z,4.26
2022-12-05T03:00:20.774Z,4.35
2022-12-05T03:02:54.323Z,4.32
2022-12-05T03:05:52.655Z,4.34
2022-12-05T03:08:23.772Z,4.38
2022-12-05T03:10:53.168Z,4.37
2022-12-05T03:13:29.560Z,4.39
2022-12-05T03:16:04.575Z,4.45
2022-12-05T03:18:47.617Z,4.41
2022-12-05T03:21:38.936Z,4.42
2022-12-05T03:24:11.665Z,4.43
2022-12-05T03:27:11.765Z,4.39
2022-12-05T03:29:54.975Z,4.30
2022-12-05T03:32:48.456Z,4.33
2022-12-05T03:35:49.731Z,4.29
2022-12-05T03:38:29.301Z,4.21
2022-12-05T03:41:20.587Z,4.08
2022-12-05T03:43:55.258Z,4.09
2022-12-05T03:46:48.880Z,3.91
2022-12-05T03:49:34.265Z,3.86
2022-12-05T03:52:10.488Z,3.87
2022-12-05T03:54:44.649Z,3.85
2022-12-05T03:57:17.287Z,3.87
2022-12-05T03:59:50.086Z,3.99
2022-12-05T04:02:35.782Z,3.96
2022-12-05T04:05:13.309Z,3.96
2022-12-05T04:07:42.888Z,4.01
2022-12-05T04:10:16.018Z,3.98
2022-12-05T04:12:46.075Z,3.96
2022-12-05T04:15:23.221Z,3.91
2022-12-05T04:18:00.819Z,3.96
2022-12-05T04:21:10.247Z,4.02
2022-12-05T04:23:41.392Z,3.96
2022-12-05T04:26:23.648Z,3.95
2022-12-05T04:28:57.739Z,3.95
2022-12-05T04:31:35.194Z,3.92
2022-12-05T04:34:06.694Z,3.91
2022-12-05T04:36:56.678Z,3.92
2022-12-05T04:39:30.495Z,3.87
2022-12-05T04:42:04.364Z,3.81
2022-12-05T04:44:48.486Z,3.81
2022-12-05T04:47:22.173Z,3.78
2022-12-05T04:49:55.142Z,3.79
2022-12-05T04:52:23.218Z,3.80
2022-12-05T04:54:53.284Z,3.82
2022-12-05T04:57:31.586Z,3.82
2022-12-05T04:59:58.877Z,3.86
2022-12-05T05:02:43.320Z,3.84
2022-12-05T05:05:18.148Z,3.83
2022-12-05T05:07:53.788Z,3.78
2022-12-05T05:10:59.299Z,3.84
2022-12-05T05:13:26.617Z,3.82
2022-12-05T05:15:53.721Z,3.79
2022-12-05T05:18:20.833Z,3.75
2022-12-05T05:20:47.951Z,3.85
2022-12-05T05:23:15.204Z,3.87
2022-12-05T05:25:45.938Z,3.95
2022-12-05T05:28:15.216Z,4.02
2022-12-05T05:30:45.356Z,4.02
2022-12-05T05:33:17.159Z,4.00
2022-12-05T05:35:44.264Z,4.04
2022-12-05T05:38:20.494Z,4.04
2022-12-05T05:40:47.583Z,4.08
2022-12-05T05:43:14.896Z,4.05
2022-12-05T05:45:42.005Z,4.07
2022-12-05T05:48:09.150Z,4.03
2022-12-05T05:50:36.651Z,4.02
2022-12-05T05:53:11.484Z,4.04
2022-12-05T05:55:41.923Z,4.01
2022-12-05T05:58:09.393Z,3.98
2022-12-05T06:00:36.790Z,3.95
2022-12-05T06:03:04.042Z,3.94
2022-12-05T06:05:31.628Z,3.99
2022-12-05T06:07:58.899Z,4.08
2022-12-05T06:10:32.704Z,4.13
2022-12-05T06:13:00.175Z,4.16
2022-12-05T06:15:34.808Z,4.17
2022-12-05T06:18:01.872Z,4.17
2022-12-05T06:20:31.486Z,4.20
2022-12-05T06:22:58.904Z,4.14
2022-12-05T06:25:27.759Z,4.13
2022-12-05T06:27:55.079Z,4.10
2022-12-05T06:30:22.281Z,4.11
2022-12-05T06:32:49.883Z,4.17
2022-12-05T06:35:17.069Z,4.12
2022-12-05T06:37:45.417Z,4.07
2022-12-05T06:40:20.872Z,4.11
2022-12-05T06:42:55.143Z,4.03
2022-12-05T06:45:22.229Z,3.98
2022-12-05T06:47:51.222Z,4.08
2022-12-05T06:50:18.914Z,4.06
2022-12-05T06:52:46.040Z,4.02
2022-12-05T06:55:15.240Z,3.98
2022-12-05T06:57:42.429Z,3.91
2022-12-05T07:03:13.248Z,3.80
2022-12-05T07:05:40.440Z,3.72
2022-12-05T07:08:09.914Z,3.69
2022-12-05T07:10:39.997Z,3.72
2022-12-05T07:13:07.124Z,3.70
2022-12-05T07:15:37.552Z,3.73
2022-12-05T07:18:04.674Z,3.76
2022-12-05T07:20:49.493Z,3.77
2022-12-05T07:23:25.879Z,3.76
2022-12-05T07:25:53.498Z,3.79
2022-12-05T07:28:21.025Z,3.87
2022-12-05T07:30:48.729Z,4.04
2022-12-05T07:33:15.794Z,4.07
2022-12-05T07:35:45.936Z,4.03
2022-12-05T07:38:15.658Z,3.94
2022-12-05T07:40:42.732Z,3.89
2022-12-05T07:43:10.577Z,3.91
2022-12-05T07:45:37.623Z,3.89
2022-12-05T07:48:05.164Z,3.84
2022-12-05T07:50:32.367Z,3.81
2022-12-05T07:52:59.552Z,3.80
2022-12-05T07:55:26.698Z,3.77
2022-12-05T07:57:53.857Z,3.75
2022-12-05T08:00:21.931Z,3.72
2022-12-05T08:02:49.445Z,3.73
2022-12-05T08:05:16.743Z,3.79
2022-12-05T08:07:43.979Z,3.79
2022-12-05T08:10:11.349Z,3.88
2022-12-05T08:12:38.595Z,3.93
2022-12-05T08:15:06.787Z,4.00
2022-12-05T08:17:34.028Z,4.13
2022-12-05T08:20:01.279Z,4.09
2022-12-05T08:22:28.506Z,4.07
2022-12-05T08:24:56.508Z,4.08
2022-12-05T08:27:23.783Z,4.14
2022-12-05T08:29:50.879Z,4.19
2022-12-05T08:32:18.061Z,4.24
2022-12-05T08:34:45.305Z,4.47
2022-12-05T08:37:12.470Z,4.46
2022-12-05T08:39:39.712Z,4.46
2022-12-05T08:42:06.878Z,4.51
2022-12-05T08:44:34.164Z,4.50
2022-12-05T08:47:01.384Z,4.69
2022-12-05T08:49:28.579Z,4.79
2022-12-05T08:51:55.838Z,4.69
2022-12-05T08:54:23.061Z,4.66
2022-12-05T08:56:51.974Z,4.61
2022-12-05T08:59:19.886Z,4.60
2022-12-05T09:01:49.509Z,4.60
2022-12-05T09:04:16.640Z,4.60
2022-12-05T09:06:43.796Z,4.57
2022-12-05T09:09:12.002Z,4.57
2022-12-05T09:11:46.207Z,4.55
2022-12-05T09:14:13.813Z,4.51
2022-12-05T09:16:41.310Z,4.53
2022-12-05T09:19:14.699Z,4.53
2022-12-05T09:21:42.776Z,4.52
2022-12-05T09:24:12.441Z,4.54
2022-12-05T09:26:40.808Z,4.49
2022-12-05T09:29:14.153Z,4.64
2022-12-05T09:31:44.154Z,4.68
2022-12-05T09:34:14.206Z,4.60
2022-12-05T09:36:42.475Z,4.57
2022-12-05T09:39:10.503Z,4.51
2022-12-05T09:42:05.049Z,4.45
2022-12-05T09:44:58.026Z,4.42
2022-12-05T09:47:28.411Z,4.43
2022-12-05T09:50:28.586Z,4.47
2022-12-05T09:53:25.199Z,4.47
2022-12-05T09:56:03.663Z,4.58
2022-12-05T09:58:46.210Z,4.68
2022-12-05T10:01:25.338Z,4.68
2022-12-05T10:04:26.800Z,4.72
2022-12-05T10:07:18.986Z,5.05
2022-12-05T10:10:24.436Z,5.08
2022-12-05T10:13:18.941Z,4.97
2022-12-05T10:15:55.692Z,4.99
2022-12-05T10:18:33.967Z,4.91
2022-12-05T10:21:08.251Z,4.81
2022-12-05T10:23:57.182Z,4.84
2022-12-05T10:26:30.338Z,4.72
2022-12-05T10:29:07.188Z,4.63
2022-12-05T10:31:38.298Z,4.53
2022-12-05T10:34:37.373Z,4.67
2022-12-05T10:37:17.844Z,4.57
2022-12-05T10:39:47.506Z,4.56
2022-12-05T10:42:31.861Z,4.56
2022-12-05T10:45:03.569Z,4.53
2022-12-05T10:47:32.417Z,4.51
2022-12-05T10:50:05.338Z,4.57
2022-12-05T10:52:32.965Z,4.53
2022-12-05T10:55:06.600Z,4.65
2022-12-05T10:57:33.759Z,4.52
2022-12-05T11:00:17.849Z,4.52
2022-12-05T11:02:51.143Z,4.52
2022-12-05T11:05:28.837Z,4.54
2022-12-05T11:07:56.835Z,4.60
2022-12-05T11:10:34.682Z,4.58
2022-12-05T11:13:13.723Z,4.62
2022-12-05T11:15:49.438Z,4.60
2022-12-05T11:18:29.501Z,4.68
2022-12-05T11:21:09.245Z,4.68
2022-12-05T11:23:36.610Z,4.74
2022-12-05T11:26:04.043Z,4.77
2022-12-05T11:28:34.514Z,4.77
2022-12-05T11:31:17.082Z,4.69
2022-12-05T11:34:02.200Z,4.63
2022-12-05T11:36:49.191Z,4.57
2022-12-05T11:39:16.602Z,4.58
2022-12-05T11:42:13.137Z,4.52
2022-12-05T11:45:01.743Z,4.59
2022-12-05T11:47:56.356Z,4.57
2022-12-05T11:50:38.754Z,4.60
2022-12-05T11:53:54.046Z,4.69
2022-12-05T11:56:27.195Z,4.79
2022-12-05T11:59:14.230Z,4.82
2022-12-05T12:01:53.677Z,4.73
2022-12-05T12:05:02.402Z,4.81
2022-12-05T12:07:35.669Z,4.88
2022-12-05T12:10:21.197Z,4.90
2022-12-05T12:13:16.022Z,4.95
2022-12-05T12:15:49.136Z,4.95
2022-12-05T12:18:34.305Z,4.98
2022-12-05T12:21:19.139Z,4.97
2022-12-05T12:24:02.199Z,4.95
2022-12-05T12:26:41.325Z,4.89
2022-12-05T12:29:23.985Z,4.89
2022-12-05T12:32:23.587Z,4.90
2022-12-05T12:35:02.683Z,4.93
2022-12-05T12:38:04.796Z,4.95
2022-12-05T12:41:04.557Z,4.82
2022-12-05T12:44:08.465Z,4.84
2022-12-05T12:46:44.674Z,4.91
2022-12-05T12:49:28.269Z,4.92
2022-12-05T12:52:03.043Z,4.79
2022-12-05T12:55:07.951Z,4.79
2022-12-05T12:58:04.431Z,4.77
2022-12-05T13:00:50.488Z,4.65
2022-12-05T13:03:22.967Z,4.61
2022-12-05T13:05:55.671Z,4.64
2022-12-05T13:08:36.071Z,4.72
2022-12-05T13:11:08.825Z,4.71
2022-12-05T13:13:50.963Z,4.87
2022-12-05T13:16:26.765Z,4.73
2022-12-05T13:18:56.013Z,4.67
2022-12-05T13:21:24.296Z,4.64
2022-12-05T13:23:55.912Z,4.62
2022-12-05T13:26:24.075Z,4.65
2022-12-05T13:28:59.255Z,4.59
2022-12-05T13:31:41.702Z,4.56
2022-12-05T13:34:35.288Z,4.76
2022-12-05T13:37:30.234Z,4.43
2022-12-05T13:40:16.806Z,4.22
2022-12-05T13:42:44.684Z,4.06
2022-12-05T13:45:15.688Z,3.99
2022-12-05T13:48:02.811Z,3.93
2022-12-05T13:50:46.100Z,3.90
2022-12-05T13:53:19.439Z,3.88
2022-12-05T13:56:12.610Z,3.84
2022-12-05T13:58:52.667Z,3.82
2022-12-05T14:01:26.197Z,3.78
2022-12-05T14:04:02.157Z,3.81
2022-12-05T14:06:52.235Z,3.81
2022-12-05T14:09:19.468Z,3.78
2022-12-05T14:12:16.248Z,3.75
2022-12-05T14:15:04.141Z,3.76
2022-12-05T14:17:45.099Z,3.74
2022-12-05T14:20:49.339Z,3.75
2022-12-05T14:23:45.580Z,3.79
2022-12-05T14:26:34.844Z,3.81
2022-12-05T14:29:29.231Z,3.87
2022-12-05T14:32:34.012Z,3.89
2022-12-05T14:35:01.150Z,3.83
2022-12-05T14:37:31.809Z,3.77
2022-12-05T14:40:02.348Z,3.83
2022-12-05T14:42:44.230Z,3.89
2022-12-05T14:45:27.025Z,3.79
2022-12-05T14:48:23.594Z,3.80
2022-12-05T14:50:52.958Z,3.74
2022-12-05T14:53:30.276Z,3.78
2022-12-05T14:56:00.169Z,3.76
2022-12-05T14:58:51.415Z,3.71
2022-12-05T15:01:23.478Z,3.65
2022-12-05T15:04:12.063Z,3.57
2022-12-05T15:06:55.789Z,3.60
2022-12-05T15:09:49.024Z,3.60
2022-12-05T15:12:44.861Z,3.54
2022-12-05T15:15:33.535Z,3.59
2022-12-05T15:18:16.892Z,3.55
2022-12-05T15:20:59.272Z,3.50
2022-12-05T15:23:44.354Z,3.51
2022-12-05T15:26:44.925Z,3.55
2022-12-05T15:29:09.220Z,3.58
2022-12-05T15:31:44.489Z,3.52
2022-12-05T15:34:18.705Z,3.48
2022-12-05T15:36:51.903Z,3.46
2022-12-05T15:39:24.107Z,3.40
2022-12-05T15:41:56.471Z,3.39
2022-12-05T15:44:34.255Z,3.38
2022-12-05T15:47:04.880Z,3.36
2022-12-05T15:49:32.296Z,3.37
2022-12-05T15:52:10.223Z,3.37
2022-12-05T15:54:38.690Z,3.38
2022-12-05T15:57:12.656Z,3.38
2022-12-05T15:59:49.173Z,3.44
2022-12-05T16:02:34.058Z,3.47
2022-12-05T16:05:02.410Z,3.46
2022-12-05T16:07:31.643Z,3.44
2022-12-05T16:10:00.716Z,3.49
2022-12-05T16:12:38.411Z,3.49
2022-12-05T16:15:23.153Z,3.40
2022-12-05T16:17:57.109Z,3.36
2022-12-05T16:20:28.063Z,3.30
2022-12-05T16:22:58.418Z,3.28
2022-12-05T16:25:36.991Z,3.24
2022-12-05T16:28:11.301Z,3.24
2022-12-05T16:30:39.582Z,3.29
2022-12-05T16:33:13.906Z,3.26
2022-12-05T16:35:46.388Z,3.24
2022-12-05T16:38:16.728Z,3.25
2022-12-05T16:40:49.794Z,3.25
2022-12-05T16:43:25.927Z,3.24
2022-12-05T16:45:55.512Z,3.26
2022-12-05T16:48:27.215Z,3.24
2022-12-05T16:51:18.791Z,3.24
2022-12-05T16:53:52.535Z,3.20
2022-12-05T16:56:26.357Z,3.19
2022-12-05T16:58:54.146Z,3.18
2022-12-05T17:01:22.603Z,3.16
2022-12-05T17:03:50.167Z,3.16
2022-12-05T17:06:24.269Z,3.15
2022-12-05T17:08:53.607Z,3.14
2022-12-05T17:11:26.005Z,3.14
2022-12-05T17:13:55.887Z,3.17
2022-12-05T17:16:23.707Z,3.17
2022-12-05T17:18:50.838Z,3.17
2022-12-05T17:21:23.557Z,3.17
2022-12-05T17:23:51.555Z,3.18
2022-12-05T17:26:21.260Z,3.18
2022-12-05T17:28:49.587Z,3.20
2022-12-05T17:31:20.622Z,3.18
2022-12-05T17:33:50.286Z,3.17
2022-12-05T17:36:17.900Z,3.18
2022-12-05T17:38:45.790Z,3.20
2022-12-05T17:41:23.180Z,3.15
2022-12-05T17:43:51.576Z,3.15
2022-12-05T17:46:23.347Z,3.14
2022-12-05T17:48:51.803Z,3.12
2022-12-05T17:51:20.427Z,3.12
2022-12-05T17:53:47.765Z,3.08
2022-12-05T17:56:15.598Z,3.10
2022-12-05T17:58:42.702Z,3.11
2022-12-05T18:01:15.804Z,3.10
2022-12-05T18:03:43.435Z,3.03
2022-12-05T18:06:11.109Z,3.01
2022-12-05T18:08:43.923Z,3.00
2022-12-05T18:11:14.142Z,3.00
2022-12-05T18:13:41.615Z,3.02
2022-12-05T18:16:08.892Z,3.00
2022-12-05T18:18:36.625Z,2.99
2022-12-05T18:21:09.488Z,2.98
2022-12-05T18:23:38.166Z,2.96
2022-12-05T18:26:08.012Z,2.96
2022-12-05T18:28:39.896Z,2.94
2022-12-05T18:31:16.835Z,2.93
2022-12-05T18:33:45.152Z,2.93
2022-12-05T18:36:16.159Z,2.93
2022-12-05T18:38:49.653Z,2.89
2022-12-05T18:41:16.983Z,2.84
2022-12-05T18:43:44.314Z,2.86
2022-12-05T18:46:11.837Z,2.79
2022-12-05T18:48:41.613Z,2.77
2022-12-05T18:51:14.484Z,2.72
2022-12-05T18:53:42.311Z,2.72
2022-12-05T18:56:22.295Z,2.72
2022-12-05T18:59:02.646Z,2.71
2022-12-05T19:01:31.560Z,2.67
2022-12-05T19:04:00.608Z,2.61
2022-12-05T19:06:29.994Z,2.66
2022-12-05T19:09:00.353Z,2.60
2022-12-05T19:11:28.943Z,2.58
2022-12-05T19:14:02.063Z,2.62
2022-12-05T19:16:30.947Z,2.58
2022-12-05T19:19:00.882Z,2.55
2022-12-05T19:21:30.776Z,2.58
2022-12-05T19:23:58.618Z,2.57
2022-12-05T19:26:26.812Z,2.60
2022-12-05T19:28:54.588Z,2.57
2022-12-05T19:31:25.124Z,2.59
2022-12-05T19:33:55.403Z,2.59
2022-12-05T19:36:31.855Z,2.53
2022-12-05T19:38:59.765Z,2.48
2022-12-05T19:41:29.570Z,2.52
2022-12-05T19:44:01.950Z,2.50
2022-12-05T19:46:30.738Z,2.46
2022-12-05T19:49:00.424Z,2.45
2022-12-05T19:51:28.231Z,2.46
2022-12-05T19:53:55.550Z,2.50
2022-12-05T19:56:25.246Z,2.54
2022-12-05T19:58:54.048Z,2.54
2022-12-05T20:01:27.305Z,2.55
2022-12-05T20:04:02.894Z,2.59
2022-12-05T20:06:37.376Z,2.59
2022-12-05T20:09:06.855Z,2.58
2022-12-05T20:11:35.360Z,2.57
2022-12-05T20:14:02.673Z,2.59
2022-12-05T20:16:32.003Z,2.50
2022-12-05T20:18:59.799Z,2.46
2022-12-05T20:21:30.507Z,2.48
2022-12-05T20:24:02.288Z,2.47
2022-12-05T20:26:33.231Z,2.43
2022-12-05T20:29:01.075Z,2.37
2022-12-05T20:31:38.496Z,2.36
2022-12-05T20:34:09.107Z,2.38
2022-12-05T20:36:36.734Z,2.38
2022-12-05T20:39:07.756Z,2.39
2022-12-05T20:41:38.276Z,2.41
2022-12-05T20:44:07.410Z,2.54
2022-12-05T20:46:35.459Z,2.46
2022-12-05T20:49:02.887Z,2.43
2022-12-05T20:51:32.423Z,2.44
2022-12-05T20:54:03.894Z,2.39
2022-12-05T20:56:33.087Z,2.40
2022-12-05T20:59:03.169Z,2.41
2022-12-05T21:01:32.572Z,2.43
2022-12-05T21:04:00.430Z,2.44
2022-12-05T21:06:33.760Z,2.42
2022-12-05T21:09:06.512Z,2.41
2022-12-05T21:11:33.729Z,2.40
2022-12-05T21:14:10.556Z,2.33
2022-12-05T21:16:38.143Z,2.30
2022-12-05T21:19:07.591Z,2.27
2022-12-05T21:21:34.904Z,2.26
2022-12-05T21:24:04.052Z,2.27
2022-12-05T21:26:34.886Z,2.21
2022-12-05T21:29:03.456Z,2.21
2022-12-05T21:31:33.649Z,2.17
2022-12-05T21:34:05.431Z,2.15
2022-12-05T21:36:35.056Z,2.12
2022-12-05T21:39:02.271Z,2.11
2022-12-05T21:41:29.434Z,2.08
2022-12-05T21:43:56.634Z,2.03
2022-12-05T21:46:25.453Z,2.06
2022-12-05T21:48:53.317Z,2.02
2022-12-05T21:51:21.567Z,2.01
2022-12-05T21:53:49.141Z,1.97
2022-12-05T21:56:18.652Z,1.94
2022-12-05T21:58:47.239Z,1.88
2022-12-05T22:01:33.021Z,1.99
2022-12-05T22:04:00.855Z,1.93
2022-12-05T22:06:31.908Z,1.92
2022-12-05T22:08:59.969Z,1.94
2022-12-05T22:11:27.273Z,1.95
2022-12-05T22:13:54.703Z,1.91
2022-12-05T22:16:25.363Z,1.94
2022-12-05T22:18:56.380Z,1.95
2022-12-05T22:21:23.639Z,1.96
2022-12-05T22:23:50.937Z,1.93
2022-12-05T22:26:23.073Z,1.94
2022-12-05T22:28:51.344Z,1.94
2022-12-05T22:31:19.677Z,1.99
2022-12-05T22:33:47.569Z,1.97
2022-12-05T22:36:16.255Z,1.96
2022-12-05T22:38:45.669Z,1.96
2022-12-05T22:41:18.705Z,1.94
2022-12-05T22:43:47.797Z,1.95
2022-12-05T22:46:20.549Z,1.92
2022-12-05T22:48:49.228Z,1.95
2022-12-05T22:51:18.201Z,1.99
2022-12-05T22:53:45.591Z,2.06
2022-12-05T22:56:15.671Z,2.02
2022-12-05T22:58:45.784Z,1.99
2022-12-05T23:01:17.118Z,2.00
2022-12-05T23:03:46.460Z,1.98
2022-12-05T23:06:16.153Z,1.95
2022-12-05T23:08:45.743Z,1.94
2022-12-05T23:11:13.056Z,1.94
2022-12-05T23:13:40.281Z,1.91
2022-12-05T23:16:10.115Z,1.94
2022-12-05T23:18:47.946Z,1.94
2022-12-05T23:21:35.500Z,1.96
2022-12-05T23:24:05.483Z,1.93
2022-12-05T23:26:37.942Z,1.92
2022-12-05T23:29:05.217Z,1.91
2022-12-05T23:31:33.021Z,1.92
2022-12-05T23:34:03.545Z,1.91
2022-12-05T23:36:32.814Z,1.92
2022-12-05T23:39:00.502Z,1.95
2022-12-05T23:41:28.364Z,1.95
2022-12-05T23:43:56.748Z,1.95
2022-12-05T23:46:26.703Z,2.02
2022-12-05T23:48:55.227Z,2.01
2022-12-05T23:51:24.904Z,2.06
2022-12-05T23:53:55.168Z,2.04
2022-12-05T23:56:28.756Z,2.06
2022-12-05T23:58:56.763Z,2.07
